Time;durP1;ratioP1;P1;durP2;ratioP2;P2;SDS_P1;SDS_P2;PMS_P1;PMS_P2;Temp;Humidity;BMP_temperature;BMP_pressure;BME280_temperature;BME280_humidity;BME280_pressure;Samples;Min_cycle;Max_cycle;Signal;HPM_P1;HPM_P2
2022/04/19 00:01:33;;;;;;;4.83;3.17;;;;;;;1.94;67.32;100051.69;1367859;89;21670;-84
2022/04/19 00:04:01;;;;;;;5.47;2.80;;;;;;;1.85;68.20;100052.30;1338292;92;21273;-83
2022/04/19 00:06:28;;;;;;;13.25;5.20;;;;;;;1.82;68.67;100060.34;1346885;92;21331;-83
2022/04/19 00:08:55;;;;;;;5.75;3.10;;;;;;;1.79;69.14;100058.29;1357375;90;22682;-83
2022/04/19 00:11:23;;;;;;;6.20;2.58;;;;;;;1.75;69.53;100054.19;1348585;92;21237;-84
2022/04/19 00:13:51;;;;;;;6.12;3.45;;;;;;;1.72;69.62;100056.17;1380890;89;21429;-83
2022/04/19 00:16:24;;;;;;;7.83;4.17;;;;;;;1.67;69.70;100049.97;1374226;90;21304;-83
2022/04/19 00:18:51;;;;;;;11.83;5.17;;;;;;;1.65;70.30;100057.05;1334215;93;22318;-83
2022/04/19 00:21:24;;;;;;;15.72;6.47;;;;;;;1.60;70.72;100054.36;1365365;91;21544;-83
2022/04/19 00:23:51;;;;;;;16.12;7.83;;;;;;;1.59;70.05;100056.14;1366937;91;21271;-84
2022/04/19 00:26:18;;;;;;;22.67;9.50;;;;;;;1.61;70.17;100052.95;1374425;89;21502;-83
2022/04/19 00:28:48;;;;;;;17.45;6.37;;;;;;;1.63;70.10;100052.39;1384772;89;21395;-83
2022/04/19 00:31:15;;;;;;;13.62;5.42;;;;;;;1.60;71.04;100053.89;1403329;87;21242;-83
2022/04/19 00:33:47;;;;;;;7.62;4.35;;;;;;;1.59;70.84;100058.75;1403523;87;21338;-84
2022/04/19 00:36:13;;;;;;;;;;;;;;;1.56;70.52;100050.66;1378701;87;21384;-86
2022/04/19 00:38:41;;;;;;;9.05;4.50;;;;;;;1.53;71.91;100053.46;1355680;91;20308;-84
2022/04/19 00:41:10;;;;;;;6.08;3.75;;;;;;;1.54;71.25;100058.20;1381253;89;21375;-85
2022/04/19 00:43:37;;;;;;;4.47;3.17;;;;;;;1.52;69.95;100048.33;1364242;90;21480;-84
2022/04/19 00:46:04;;;;;;;5.15;3.35;;;;;;;1.52;69.33;100053.55;1364755;90;21599;-84
2022/04/19 00:48:31;;;;;;;5.42;3.17;;;;;;;1.54;68.88;100050.38;1363866;90;21424;-85
2022/04/19 00:51:00;;;;;;;5.97;2.95;;;;;;;1.53;68.64;100050.02;1364202;90;21637;-84
2022/04/19 00:53:29;;;;;;;6.55;3.47;;;;;;;1.48;70.09;100041.66;1357656;90;21339;-85
2022/04/19 00:55:58;;;;;;;6.15;3.75;;;;;;;1.47;69.25;100046.52;1357981;91;21405;-83
2022/04/19 00:58:25;;;;;;;11.50;5.22;;;;;;;1.46;69.24;100046.12;1358468;90;21420;-84
2022/04/19 01:00:52;;;;;;;9.68;4.50;;;;;;;1.40;69.77;100046.05;1368734;91;21331;-84
2022/04/19 01:03:22;;;;;;;12.47;4.10;;;;;;;1.34;70.20;100039.45;1358204;91;21398;-84
2022/04/19 01:05:53;;;;;;;6.90;3.72;;;;;;;1.29;70.64;100037.59;1357712;91;21442;-84
2022/04/19 01:08:18;;;;;;;10.13;4.70;;;;;;;1.23;70.80;100035.38;1357441;90;21287;-84
2022/04/19 01:10:45;;;;;;;6.25;3.95;;;;;;;1.18;71.14;100034.86;1357726;91;21435;-84
2022/04/19 01:13:18;;;;;;;6.03;4.40;;;;;;;1.14;71.03;100032.06;1357977;91;22472;-84
2022/04/19 01:15:48;;;;;;;5.40;3.62;;;;;;;1.09;72.68;100034.12;1357930;90;21345;-85
2022/04/19 01:18:22;;;;;;;6.37;3.67;;;;;;;1.09;70.61;100036.73;1366116;92;21489;-85
2022/04/19 01:20:50;;;;;;;7.28;4.30;;;;;;;1.02;72.71;100027.64;1378564;89;21419;-85
2022/04/19 01:23:22;;;;;;;8.05;4.53;;;;;;;1.04;70.91;100026.61;1351650;91;22818;-85
2022/04/19 01:25:49;;;;;;;8.23;4.60;;;;;;;1.11;70.75;100033.09;1378349;89;22158;-85
2022/04/19 01:28:19;;;;;;;12.82;6.15;;;;;;;1.13;70.58;100029.09;1344145;92;22463;-86
2022/04/19 01:30:52;;;;;;;25.37;9.98;;;;;;;1.10;71.29;100030.13;1378255;90;22336;-83
2022/04/19 01:33:18;;;;;;;31.12;13.10;;;;;;;1.07;72.61;100026.89;1378599;89;21382;-84
2022/04/19 01:35:45;;;;;;;27.35;11.00;;;;;;;1.01;71.88;100022.06;1378777;89;21242;-84
2022/04/19 01:38:12;;;;;;;20.62;8.30;;;;;;;0.96;72.26;100024.12;1379214;89;22255;-84
2022/04/19 01:40:39;;;;;;;20.90;7.62;;;;;;;0.90;72.18;100022.73;1378556;89;22410;-82
2022/04/19 01:43:07;;;;;;;19.10;8.75;;;;;;;0.86;72.61;100019.92;1343967;92;21451;-83
2022/04/19 01:45:34;;;;;;;13.35;6.22;;;;;;;0.81;72.69;100019.40;1378883;89;21464;-83
2022/04/19 01:48:02;;;;;;;14.55;5.85;;;;;;;0.78;72.37;100020.42;1378717;89;21442;-83
2022/04/19 01:50:29;;;;;;;12.75;5.67;;;;;;;0.76;71.94;100015.77;1379180;89;21553;-83
2022/04/19 01:52:59;;;;;;;12.70;6.47;;;;;;;0.75;72.25;100021.05;1384431;88;21391;-84
2022/04/19 01:55:27;;;;;;;14.47;6.53;;;;;;;0.73;72.26;100025.08;1385106;88;21376;-84
2022/04/19 01:57:57;;;;;;;20.00;9.75;;;;;;;0.68;72.37;100025.81;1385933;89;22173;-84
2022/04/19 02:00:25;;;;;;;22.07;9.28;;;;;;;0.66;71.88;100025.06;1385253;89;21302;-84
2022/04/19 02:02:55;;;;;;;25.32;11.55;;;;;;;0.64;71.60;100019.13;1385005;88;21324;-84
2022/04/19 02:05:22;;;;;;;24.98;10.93;;;;;;;0.65;71.77;100015.12;1386292;88;22264;-85
2022/04/19 02:07:49;;;;;;;25.30;10.23;;;;;;;0.63;71.97;100023.95;1384564;89;21383;-84
2022/04/19 02:10:18;;;;;;;25.70;11.08;;;;;;;0.55;72.81;100011.89;1385212;89;21339;-84
2022/04/19 02:12:46;;;;;;;25.23;11.73;;;;;;;0.50;73.21;100019.97;1384651;89;21339;-84
2022/04/19 02:15:16;;;;;;;25.65;11.75;;;;;;;0.46;73.68;100013.26;1385295;88;21353;-83
2022/04/19 02:17:49;;;;;;;20.90;9.63;;;;;;;0.47;72.99;100014.13;1386321;89;21479;-84
2022/04/19 02:20:18;;;;;;;18.65;8.83;;;;;;;0.45;73.03;100018.11;1387746;91;22469;-84
2022/04/19 02:22:45;;;;;;;24.43;9.85;;;;;;;0.42;72.72;100019.13;1388808;88;21442;-84
2022/04/19 02:25:15;;;;;;;26.57;10.32;;;;;;;0.37;73.62;100014.66;1388187;88;21420;-84
2022/04/19 02:27:42;;;;;;;29.52;13.10;;;;;;;0.35;72.73;100013.94;1388625;89;21389;-84
2022/04/19 02:30:15;;;;;;;40.48;17.30;;;;;;;0.33;73.04;100011.05;1388361;89;21427;-84
2022/04/19 02:32:48;;;;;;;29.40;13.30;;;;;;;0.24;74.17;100011.61;1358884;90;21419;-83
2022/04/19 02:35:23;;;;;;;32.10;14.00;;;;;;;0.18;74.66;100006.30;1364104;90;21502;-84
2022/04/19 02:37:54;;;;;;;31.93;13.60;;;;;;;0.16;73.87;100012.05;1363701;90;22615;-84
2022/04/19 02:40:23;;;;;;;31.82;15.88;;;;;;;0.15;73.93;100007.79;1362304;90;21294;-83
2022/04/19 02:42:54;;;;;;;32.80;15.03;;;;;;;0.15;73.46;100006.48;1364417;90;21279;-83
2022/04/19 02:45:22;;;;;;;;;;;;;;;0.15;73.87;100012.99;1365898;90;21242;-83
2022/04/19 02:48:05;;;;;;;35.85;16.10;;;;;;;0.13;74.54;100010.47;1344814;92;20354;-83
2022/04/19 02:50:35;;;;;;;54.15;25.15;;;;;;;0.11;74.36;100014.09;1363893;90;21338;-83
2022/04/19 02:53:03;;;;;;;48.68;22.50;;;;;;;0.05;74.21;100013.15;1364379;90;21524;-83
2022/04/19 02:55:30;;;;;;;51.48;24.30;;;;;;;0.01;74.31;100007.77;1344575;92;21353;-83
2022/04/19 02:57:58;;;;;;;48.35;24.55;;;;;;;-0.01;74.73;100015.18;1359131;91;22247;-83
2022/04/19 03:00:26;;;;;;;49.48;24.27;;;;;;;-0.03;74.89;100010.98;1359141;91;22240;-83
2022/04/19 03:02:53;;;;;;;73.45;34.27;;;;;;;-0.02;73.82;100013.52;1358888;90;21409;-82
2022/04/19 03:05:21;;;;;;;75.05;34.50;;;;;;;-0.02;73.55;100005.71;1362686;90;21460;-83
2022/04/19 03:07:48;;;;;;;71.90;34.85;;;;;;;-0.04;73.63;100007.56;1340189;92;21472;-84
2022/04/19 03:10:16;;;;;;;87.47;38.95;;;;;;;0.01;73.26;100014.27;1362232;90;21531;-84
2022/04/19 03:12:44;;;;;;;94.28;42.67;;;;;;;0.00;73.19;100008.23;1359624;91;21538;-84
2022/04/19 03:15:15;;;;;;;93.40;39.80;;;;;;;-0.04;74.15;100014.53;1340681;91;21450;-84
2022/04/19 03:17:43;;;;;;;76.57;35.05;;;;;;;-0.03;73.38;100011.85;1353769;91;21272;-84
2022/04/19 03:20:11;;;;;;;92.17;38.48;;;;;;;-0.02;73.65;100014.82;1367280;90;21384;-83
2022/04/19 03:28:10;;;;;;;79.72;31.73;;;;;;;-0.05;73.23;100014.17;1366098;90;21406;-86
2022/04/19 03:30:39;;;;;;;74.92;32.55;;;;;;;-0.08;74.17;100014.35;1363240;90;23268;-85
2022/04/19 03:33:06;;;;;;;71.12;30.32;;;;;;;-0.12;74.90;100013.67;1376055;89;21363;-84
2022/04/19 03:35:36;;;;;;;57.27;24.27;;;;;;;-0.12;73.64;100012.37;1376080;89;21399;-82
2022/04/19 03:38:05;;;;;;;44.70;19.30;;;;;;;-0.10;73.30;100015.73;1377171;89;22256;-83
2022/04/19 03:40:32;;;;;;;44.00;20.95;;;;;;;-0.07;72.73;100015.55;1375916;89;21281;-84
2022/04/19 03:42:59;;;;;;;43.78;18.70;;;;;;;-0.05;72.41;100019.38;1376567;89;21370;-84
2022/04/19 03:45:26;;;;;;;39.92;17.30;;;;;;;-0.06;73.94;100017.67;1375843;89;21281;-83
2022/04/19 03:47:53;;;;;;;39.88;17.32;;;;;;;-0.10;74.95;100026.13;1376346;89;22118;-84
2022/04/19 03:50:20;;;;;;;43.35;18.90;;;;;;;-0.06;73.47;100022.88;1376162;89;22191;-84
2022/04/19 03:52:50;;;;;;;42.25;17.45;;;;;;;-0.06;73.57;100023.74;1375454;89;21406;-84
2022/04/19 03:55:17;;;;;;;40.85;13.88;;;;;;;-0.05;73.44;100028.01;1371316;90;21467;-83
2022/04/19 03:57:44;;;;;;;30.82;14.58;;;;;;;-0.03;73.20;100020.96;1382124;90;22124;-84
2022/04/19 04:00:11;;;;;;;29.27;12.90;;;;;;;0.01;73.20;100022.08;1371128;90;21362;-83
2022/04/19 04:02:38;;;;;;;21.42;9.65;;;;;;;0.06;72.77;100018.72;1371798;89;21466;-83
2022/04/19 04:05:06;;;;;;;31.85;13.03;;;;;;;0.11;72.41;100016.69;1371458;90;22765;-83
2022/04/19 04:07:37;;;;;;;22.22;11.00;;;;;;;0.14;73.05;100020.41;1371530;90;21451;-83
2022/04/19 04:10:03;;;;;;;21.50;9.60;;;;;;;0.13;73.56;100021.34;1372096;90;21421;-84
2022/04/19 04:12:30;;;;;;;16.77;9.10;;;;;;;0.16;72.91;100026.37;1371462;90;21480;-84
2022/04/19 04:14:57;;;;;;;14.78;8.25;;;;;;;0.21;72.54;100031.67;1371271;90;21422;-84
2022/04/19 04:17:24;;;;;;;17.00;7.90;;;;;;;0.29;72.50;100026.02;1370402;90;21451;-84
2022/04/19 04:19:51;;;;;;;17.80;8.18;;;;;;;0.37;72.78;100028.14;1357264;90;21331;-84
2022/04/19 04:22:18;;;;;;;24.12;10.65;;;;;;;0.44;72.40;100025.55;1357139;90;21250;-85
2022/04/19 04:24:45;;;;;;;19.42;9.10;;;;;;;0.55;72.17;100037.94;1348099;91;21288;-84
2022/04/19 04:27:12;;;;;;;20.32;8.68;;;;;;;0.63;72.42;100031.77;1347953;91;21296;-82
2022/04/19 04:29:39;;;;;;;23.60;10.35;;;;;;;0.72;72.32;100035.13;1347901;91;22264;-83
2022/04/19 04:32:07;;;;;;;17.17;8.03;;;;;;;0.81;72.03;100035.03;1348523;90;23041;-82
2022/04/19 04:34:34;;;;;;;15.43;8.03;;;;;;;0.88;72.21;100034.53;1334107;92;21362;-83
2022/04/19 04:37:02;;;;;;;14.98;7.75;;;;;;;0.99;71.82;100036.95;1348796;91;21428;-83
2022/04/19 04:39:29;;;;;;;15.70;8.48;;;;;;;1.09;72.18;100035.42;1348206;92;22373;-83
2022/04/19 04:41:56;;;;;;;18.17;8.68;;;;;;;1.21;71.94;100037.27;1347937;92;21450;-83
2022/04/19 04:44:23;;;;;;;12.82;6.83;;;;;;;1.32;71.91;100042.64;1340329;93;21500;-83
2022/04/19 04:49:35;;;;;;;14.43;7.75;;;;;;;1.50;71.67;100030.19;1357395;90;21346;-83
2022/04/19 04:52:08;;;;;;;17.35;7.72;;;;;;;1.65;71.62;100030.95;1357924;91;21339;-84
2022/04/19 04:54:37;;;;;;;21.80;9.90;;;;;;;1.75;71.68;100030.70;1349032;90;22315;-84
2022/04/19 04:57:06;;;;;;;21.95;9.88;;;;;;;1.85;71.85;100034.04;1334915;93;21333;-84
2022/04/19 04:59:34;;;;;;;22.52;10.95;;;;;;;1.94;72.17;100038.64;1329229;91;21372;-83
2022/04/19 05:02:03;;;;;;;26.02;11.88;;;;;;;2.00;71.72;100035.62;1344591;90;21338;-86
2022/04/19 05:04:32;;;;;;;26.17;11.77;;;;;;;2.10;71.69;100040.61;1364022;90;21279;-84
2022/04/19 05:07:00;;;;;;;27.70;13.40;;;;;;;2.21;71.55;100041.99;1364055;90;22113;-84
2022/04/19 05:09:27;;;;;;;30.13;14.33;;;;;;;2.36;71.56;100035.36;1364226;90;23086;-83
2022/04/19 05:11:54;;;;;;;30.27;13.83;;;;;;;2.47;71.32;100036.77;1364018;90;22485;-83
2022/04/19 05:14:22;;;;;;;23.57;11.90;;;;;;;2.58;71.01;100042.58;1364233;90;21642;-86
2022/04/19 05:16:49;;;;;;;23.37;12.00;;;;;;;2.75;70.90;100045.33;1364383;90;21746;-84
2022/04/19 05:19:17;;;;;;;20.87;11.30;;;;;;;2.87;70.78;100038.76;1348630;90;21489;-85
2022/04/19 05:21:44;;;;;;;21.97;10.07;;;;;;;3.00;70.40;100045.77;1345261;92;21574;-80
2022/04/19 05:24:11;;;;;;;26.10;10.87;;;;;;;3.10;70.16;100034.99;1345339;92;21597;-81
2022/04/19 05:26:39;;;;;;;19.30;9.40;;;;;;;3.22;70.00;100041.95;1321167;94;21536;-81
2022/04/19 05:29:06;;;;;;;16.97;10.13;;;;;;;3.37;69.84;100033.03;1364490;92;21688;-83
2022/04/19 05:31:36;;;;;;;18.03;10.17;;;;;;;3.57;69.84;100040.73;1364012;91;21664;-83
2022/04/19 05:34:04;;;;;;;23.75;10.75;;;;;;;3.75;69.64;100042.94;1374404;89;21516;-84
2022/04/19 05:36:31;;;;;;;30.77;11.83;;;;;;;3.90;69.42;100044.41;1368508;91;21284;-83
2022/04/19 05:39:02;;;;;;;19.20;9.63;;;;;;;4.01;69.04;100040.52;1368274;89;21466;-83
2022/04/19 05:41:30;;;;;;;20.57;9.13;;;;;;;4.13;68.73;100043.17;1372155;89;21608;-82
2022/04/19 05:43:58;;;;;;;22.07;8.87;;;;;;;4.30;68.29;100044.87;1357498;91;21728;-83
2022/04/19 05:46:25;;;;;;;22.10;9.57;;;;;;;4.50;67.99;100037.27;1354754;91;21635;-83
2022/04/19 05:48:55;;;;;;;16.67;7.43;;;;;;;4.72;67.62;100038.59;1360657;91;21456;-83
2022/04/19 05:51:22;;;;;;;16.63;6.80;;;;;;;4.85;66.60;100039.77;1370061;89;21713;-83
2022/04/19 05:53:49;;;;;;;9.27;4.40;;;;;;;5.15;65.96;100039.60;1367472;89;21690;-84
2022/04/19 05:56:16;;;;;;;13.33;6.43;;;;;;;5.15;65.96;100039.60;1355663;90;21718;-83
2022/04/19 05:58:43;;;;;;;15.83;6.60;;;;;;;5.23;63.77;100046.39;1343059;92;21694;-84
2022/04/19 06:01:16;;;;;;;12.13;5.47;;;;;;;5.26;63.66;100043.52;1342895;92;21929;-83
2022/04/19 06:06:31;;;;;;;10.17;4.07;;;;;;;5.51;63.47;100028.43;1343060;92;21730;-83
2022/04/19 06:08:59;;;;;;;12.87;4.10;;;;;;;5.79;63.25;100044.91;1344551;92;23610;-83
2022/04/19 06:11:26;;;;;;;10.37;4.90;;;;;;;5.95;62.77;100035.78;1343965;92;23573;-83
2022/04/19 06:13:53;;;;;;;9.53;3.87;;;;;;;6.18;62.21;100040.43;1329517;93;22110;-83
2022/04/19 06:16:22;;;;;;;6.23;3.93;;;;;;;6.37;61.94;100044.50;1329147;93;22088;-82
2022/04/19 06:18:49;;;;;;;8.50;5.80;;;;;;;6.55;60.94;100035.03;1367708;92;21962;-83
2022/04/19 06:21:16;;;;;;;7.70;5.60;;;;;;;6.67;60.46;100035.77;1382655;89;22165;-83
2022/04/19 06:23:43;;;;;;;9.40;5.90;;;;;;;6.88;58.91;100029.16;1382170;89;23064;-83
2022/04/19 06:26:10;;;;;;;7.13;4.60;;;;;;;6.88;58.91;100029.16;1381954;89;21213;-83
2022/04/19 06:28:38;;;;;;;10.90;4.70;;;;;;;7.03;59.12;100030.93;1380485;89;21397;-82
2022/04/19 06:31:05;;;;;;;8.60;4.03;;;;;;;7.20;58.49;100032.91;1362265;91;21199;-83
2022/04/19 06:33:33;;;;;;;12.13;6.43;;;;;;;7.31;54.89;100032.42;1340961;91;22123;-83
2022/04/19 06:36:05;;;;;;;10.43;5.27;;;;;;;7.42;56.18;100029.67;1337418;92;21404;-84
2022/04/19 06:38:32;;;;;;;10.07;5.23;;;;;;;7.57;56.57;100033.59;1362560;90;21420;-84
2022/04/19 06:40:59;;;;;;;6.90;3.53;;;;;;;7.72;55.90;100034.00;1362124;90;21519;-83
2022/04/19 06:43:27;;;;;;;5.77;2.50;;;;;;;7.80;54.15;100034.63;1361954;90;21530;-84
2022/04/19 06:45:55;;;;;;;6.90;2.83;;;;;;;7.79;54.57;100037.73;1344217;92;21279;-84
2022/04/19 06:48:22;;;;;;;9.17;3.30;;;;;;;7.90;52.98;100031.48;1369886;90;21353;-84
2022/04/19 06:50:49;;;;;;;4.30;2.40;;;;;;;8.07;53.31;100031.27;1368582;90;21467;-84
2022/04/19 06:53:16;;;;;;;7.13;2.67;;;;;;;8.05;51.21;100037.98;1368564;90;21337;-84
2022/04/19 06:55:43;;;;;;;5.17;2.93;;;;;;;8.11;51.38;100031.31;1382907;89;21375;-84
2022/04/19 06:58:12;;;;;;;3.73;2.53;;;;;;;8.27;52.17;100032.06;1380641;89;21360;-83
2022/04/19 07:00:42;;;;;;;4.77;2.33;;;;;;;8.32;51.46;100033.80;1383608;89;21286;-84
2022/04/19 07:03:09;;;;;;;2.92;1.80;;;;;;;8.39;47.95;100030.13;1384325;89;21331;-83
2022/04/19 07:05:36;;;;;;;5.33;2.13;;;;;;;8.49;50.36;100034.89;1383491;89;21345;-84
2022/04/19 07:08:07;;;;;;;7.40;3.03;;;;;;;8.63;48.70;100030.47;1383268;89;22107;-84
2022/04/19 07:10:35;;;;;;;7.45;2.70;;;;;;;8.70;48.73;100032.03;1383599;89;22455;-84
2022/04/19 07:13:03;;;;;;;9.20;3.80;;;;;;;8.80;46.66;100032.34;1383210;89;21331;-84
2022/04/19 07:15:30;;;;;;;3.90;2.83;;;;;;;8.91;48.54;100033.94;1383187;89;21412;-84
2022/04/19 07:17:57;;;;;;;6.60;2.57;;;;;;;9.04;46.66;100028.33;1384095;89;21308;-84
2022/04/19 07:28:43;;;;;;;4.70;3.10;;;;;;;9.58;46.68;100036.31;1384980;89;21192;-84
2022/04/19 07:31:11;;;;;;;4.73;2.70;;;;;;;9.62;46.65;100045.61;1385518;89;21338;-83
2022/04/19 07:33:39;;;;;;;5.80;3.17;;;;;;;9.74;47.16;100040.92;1385181;88;21434;-83
2022/04/19 07:36:07;;;;;;;5.57;2.47;;;;;;;9.85;46.97;100039.38;1385581;89;21272;-84
2022/04/19 07:38:34;;;;;;;4.00;2.10;;;;;;;10.01;46.93;100036.87;1385647;88;21303;-83
2022/04/19 07:41:02;;;;;;;4.20;2.20;;;;;;;10.09;45.54;100037.41;1385364;89;22411;-84
2022/04/19 07:43:30;;;;;;;3.37;2.37;;;;;;;10.01;42.23;100032.05;1385411;89;22696;-83
2022/04/19 07:45:58;;;;;;;4.50;2.63;;;;;;;9.89;43.52;100039.39;1384992;88;22138;-83
2022/04/19 07:48:26;;;;;;;5.10;2.73;;;;;;;10.01;43.31;100026.77;1386082;89;21376;-83
2022/04/19 07:50:53;;;;;;;5.80;2.33;;;;;;;9.89;42.17;100024.36;1385981;88;21316;-83
2022/04/19 07:53:20;;;;;;;4.20;2.50;;;;;;;10.12;44.02;100026.52;1385387;89;21272;-84
2022/04/19 07:55:47;;;;;;;4.77;2.37;;;;;;;10.39;41.27;100028.23;1386471;87;21399;-84
2022/04/19 07:58:14;;;;;;;4.50;2.50;;;;;;;10.61;42.29;100014.45;1385134;88;22138;-83
2022/04/19 08:00:42;;;;;;;4.10;2.63;;;;;;;10.87;43.05;100022.02;1385311;89;21280;-83
2022/04/19 08:03:09;;;;;;;5.67;3.00;;;;;;;11.14;42.54;100017.82;1385427;88;21346;-83
2022/04/19 08:05:36;;;;;;;3.90;2.60;;;;;;;11.38;40.66;100018.87;1384671;89;21397;-83
2022/04/19 08:08:04;;;;;;;7.10;2.83;;;;;;;11.55;40.40;100016.58;1370665;90;21338;-83
2022/04/19 08:10:31;;;;;;;6.93;3.10;;;;;;;11.61;39.91;100017.23;1385212;89;21376;-83
2022/04/19 08:12:58;;;;;;;4.17;3.00;;;;;;;11.53;39.61;100021.20;1370911;90;21324;-84
2022/04/19 08:15:26;;;;;;;5.80;3.03;;;;;;;11.66;40.05;100016.76;1385329;88;22402;-84
2022/04/19 08:17:53;;;;;;;5.07;2.70;;;;;;;11.87;39.70;100019.77;1384908;88;22297;-83
2022/04/19 08:20:20;;;;;;;6.30;3.20;;;;;;;11.89;38.24;100019.62;1383304;89;22247;-84
2022/04/19 08:22:47;;;;;;;8.80;3.17;;;;;;;11.94;39.23;100014.14;1383026;89;22847;-83
2022/04/19 08:25:14;;;;;;;4.23;2.77;;;;;;;12.12;39.13;100017.12;1362240;90;21436;-81
2022/04/19 08:27:47;;;;;;;7.20;3.30;;;;;;;11.96;36.73;100010.81;1382952;89;21426;-82
2022/04/19 08:30:16;;;;;;;3.47;2.67;;;;;;;11.57;38.25;100018.58;1362648;90;21301;-80
2022/04/19 08:32:44;;;;;;;11.53;2.97;;;;;;;11.74;39.14;100018.92;1383011;89;21265;-80
2022/04/19 08:35:12;;;;;;;19.83;3.40;;;;;;;11.45;38.72;100012.77;1383219;89;21531;-91
2022/04/19 08:37:39;;;;;;;7.47;2.90;;;;;;;11.72;40.06;100014.27;1377178;89;21324;-91
2022/04/19 08:40:10;;;;;;;5.67;3.47;;;;;;;12.06;40.13;100019.94;1380085;89;21464;-92
2022/04/19 08:42:40;;;;;;;3.93;2.63;;;;;;;11.99;39.02;100015.45;1380328;89;21249;-91
2022/04/19 08:45:10;;;;;;;6.63;2.87;;;;;;;11.73;37.79;100015.91;1380740;89;21264;-92
2022/04/19 08:47:39;;;;;;;5.53;2.85;;;;;;;11.33;38.40;100019.34;1380887;89;21265;-92
2022/04/19 08:50:10;;;;;;;15.33;2.93;;;;;;;11.04;38.26;100016.61;1365117;91;21302;-90
2022/04/19 08:52:38;;;;;;;4.30;2.60;;;;;;;11.12;39.28;100021.62;1381194;89;22314;-91
2022/04/19 08:57:52;;;;;;;3.70;2.60;;;;;;;11.13;39.27;100014.82;1375943;89;21265;-91
2022/04/19 09:00:23;;;;;;;5.80;2.70;;;;;;;11.14;38.84;100015.17;1375560;90;21468;-91
2022/04/19 09:02:55;;;;;;;6.27;3.13;;;;;;;11.08;38.91;100010.52;1375801;89;21229;-91
2022/04/19 09:05:26;;;;;;;3.90;2.67;;;;;;;10.90;38.86;100008.45;1376169;91;21205;-92
2022/04/19 09:07:57;;;;;;;4.30;3.07;;;;;;;10.57;38.90;100011.80;1357461;90;21369;-94
2022/04/19 09:10:33;;;;;;;4.77;3.00;;;;;;;10.43;39.20;100015.52;1376744;89;21390;-91
2022/04/19 09:13:04;;;;;;;21.87;4.00;;;;;;;10.39;39.32;100021.13;1376211;90;21258;-92
2022/04/19 09:15:43;;;;;;;5.10;3.10;;;;;;;10.58;40.49;100016.59;1376657;91;21450;-91
2022/04/19 09:18:29;;;;;;;8.30;2.80;;;;;;;10.73;40.38;100021.64;1376813;90;22280;-92
2022/04/19 09:20:57;;;;;;;4.90;3.23;;;;;;;10.93;40.11;100023.52;1372809;90;21339;-92
2022/04/19 09:23:25;;;;;;;7.17;3.77;;;;;;;11.16;39.68;100018.47;1373578;90;21287;-91
2022/04/19 09:25:59;;;;;;;4.83;2.90;;;;;;;11.15;38.70;100015.50;1366824;90;21227;-91
2022/04/19 09:28:28;;;;;;;6.40;3.37;;;;;;;11.19;38.73;100019.50;1367580;90;21403;-91
2022/04/19 09:30:59;;;;;;;7.47;3.27;;;;;;;11.39;39.38;100019.19;1368142;90;21311;-93
2022/04/19 09:33:27;;;;;;;;;;;;;;;11.92;39.08;100019.28;1369680;90;21324;-93
2022/04/19 09:36:02;;;;;;;5.07;3.70;;;;;;;12.45;39.47;100019.20;1366561;90;20258;-86
2022/04/19 09:38:43;;;;;;;5.07;3.60;;;;;;;12.78;38.54;100015.95;1363206;90;21198;-86
2022/04/19 09:41:14;;;;;;;5.10;3.00;;;;;;;12.78;37.01;100019.12;1363377;90;21494;-87
2022/04/19 09:43:41;;;;;;;;;;;;;;;12.64;36.57;100014.84;1365335;89;21345;-86
2022/04/19 09:46:08;;;;;;;15.60;3.90;;;;;;;12.63;36.38;100021.66;1363427;90;20258;-86
2022/04/19 09:48:39;;;;;;;4.87;2.67;;;;;;;12.59;37.07;100026.97;1363835;90;22233;-86
2022/04/19 09:51:10;;;;;;;4.87;3.40;;;;;;;12.35;35.26;100026.53;1371908;91;21169;-89
2022/04/19 09:53:47;;;;;;;4.55;3.15;;;;;;;12.32;36.36;100025.05;1373369;89;22233;-84
2022/04/19 09:56:21;;;;;;;9.60;3.67;;;;;;;12.28;36.95;100025.03;1376535;87;21397;-90
2022/04/19 09:58:51;;;;;;;6.37;3.33;;;;;;;12.28;36.42;100029.02;1378582;89;21371;-90
2022/04/19 10:09:38;;;;;;;5.53;3.60;;;;;;;13.83;35.61;100018.69;1379858;88;21257;-90
2022/04/19 10:12:11;;;;;;;19.93;3.93;;;;;;;13.73;32.30;100022.93;1393367;85;21711;-91
2022/04/19 10:14:39;;;;;;;5.90;3.73;;;;;;;13.62;34.60;100018.02;1383497;89;21390;-92
2022/04/19 10:17:06;;;;;;;6.83;3.27;;;;;;;13.40;34.32;100016.48;1381932;89;21257;-89
2022/04/19 10:19:34;;;;;;;5.37;3.13;;;;;;;13.27;34.56;100018.41;1379964;89;22262;-84
2022/04/19 10:22:07;;;;;;;4.70;3.67;;;;;;;13.25;34.70;100014.23;1379166;89;21339;-86
2022/04/19 10:24:45;;;;;;;4.27;2.93;;;;;;;13.28;34.41;100015.24;1378189;89;21516;-78
2022/04/19 10:27:13;;;;;;;4.60;3.03;;;;;;;13.07;33.84;100017.16;1373497;89;22900;-77
2022/04/19 10:29:43;;;;;;;5.70;3.47;;;;;;;13.02;34.94;100019.50;1380569;89;22255;-79
2022/04/19 10:32:12;;;;;;;10.43;3.93;;;;;;;12.91;35.60;100017.23;1378617;89;22252;-87
2022/04/19 10:34:41;;;;;;;8.20;3.33;;;;;;;12.74;35.11;100007.16;1379177;89;21501;-85
2022/04/19 10:37:21;;;;;;;6.67;2.93;;;;;;;12.40;35.77;100012.27;1379026;89;21457;-86
2022/04/19 10:39:52;;;;;;;6.53;3.90;;;;;;;12.44;35.78;100017.55;1379323;89;21479;-85
2022/04/19 10:42:36;;;;;;;10.13;3.60;;;;;;;12.37;35.47;100012.58;1378988;89;21338;-86
2022/04/19 10:45:25;;;;;;;4.87;3.20;;;;;;;12.45;35.87;100014.39;1378835;89;21508;-85
2022/04/19 10:47:59;;;;;;;13.17;3.40;;;;;;;12.32;35.65;100015.75;1378780;89;21426;-86
2022/04/19 10:50:30;;;;;;;8.47;3.20;;;;;;;12.08;35.60;100011.30;1378920;89;21360;-86
2022/04/19 10:53:03;;;;;;;4.95;3.12;;;;;;;11.93;36.28;100011.64;1377763;89;21472;-85
2022/04/19 10:55:33;;;;;;;5.10;2.83;;;;;;;11.83;36.33;100013.12;1381497;88;22290;-85
2022/04/19 11:00:58;;;;;;;8.47;3.17;;;;;;;11.88;35.62;100006.86;1373345;89;21339;-86
2022/04/19 11:03:48;;;;;;;5.33;2.85;;;;;;;11.85;35.98;100011.61;1383023;89;22332;-85
2022/04/19 11:06:38;;;;;;;7.47;3.70;;;;;;;11.78;35.18;100010.63;1396562;87;21326;-85
2022/04/19 11:09:22;;;;;;;10.58;3.33;;;;;;;11.79;35.99;100014.93;1414237;87;21371;-86
2022/04/19 11:12:10;;;;;;;4.23;3.17;;;;;;;11.89;35.94;100011.16;1421736;86;21463;-86
2022/04/19 11:14:43;;;;;;;13.10;4.00;;;;;;;11.80;35.31;100016.11;1415503;86;22224;-87
2022/04/19 11:17:29;;;;;;;4.60;2.57;;;;;;;11.84;35.63;100014.77;1420542;85;21308;-88
2022/04/19 11:20:07;;;;;;;5.23;2.50;;;;;;;11.73;34.35;100020.39;1416987;86;21477;-87
2022/04/19 11:22:51;;;;;;;4.63;2.67;;;;;;;11.77;34.84;100019.09;1403519;86;22254;-88
2022/04/19 11:25:43;;;;;;;7.43;3.97;;;;;;;11.99;35.83;100007.00;1407552;87;21204;-87
2022/04/19 11:28:15;;;;;;;8.23;3.63;;;;;;;12.31;35.06;100009.28;1413023;86;21344;-88
2022/04/19 11:30:59;;;;;;;11.33;3.80;;;;;;;12.50;34.47;100002.77;1413405;86;21316;-86
2022/04/19 11:33:33;;;;;;;13.77;2.70;;;;;;;12.65;33.97;100005.86;1398022;88;21309;-88
2022/04/19 11:36:07;;;;;;;6.87;3.17;;;;;;;12.74;33.81;100003.18;1382799;88;21309;-86
2022/04/19 11:38:42;;;;;;;7.47;3.40;;;;;;;13.08;34.48;99994.39;1364459;90;21257;-86
2022/04/19 11:46:46;;;;;;;5.13;3.03;;;;;;;13.80;31.28;99993.27;1374887;90;21242;-86
2022/04/19 11:49:29;;;;;;;5.35;2.72;;;;;;;14.33;32.78;99990.12;1381955;88;21279;-86
2022/04/19 11:52:09;;;;;;;4.50;3.00;;;;;;;14.52;29.92;99987.95;1383556;89;21336;-86
2022/04/19 11:54:42;;;;;;;9.03;5.10;;;;;;;14.28;30.08;99992.50;1421768;86;22753;-86
2022/04/19 11:57:10;;;;;;;4.43;2.60;;;;;;;14.14;30.62;99984.81;1415777;86;21293;-86
2022/04/19 11:59:40;;;;;;;6.17;2.33;;;;;;;13.35;29.21;99988.31;1420592;86;21226;-87
2022/04/19 12:02:20;;;;;;;7.10;3.17;;;;;;;13.34;31.42;99977.33;1421435;86;21293;-87
2022/04/19 12:05:02;;;;;;;5.67;2.73;;;;;;;13.92;32.02;99977.20;1407902;88;21270;-86
2022/04/19 12:07:27;;;;;;;4.50;2.80;;;;;;;14.49;31.69;99966.98;1413292;85;22284;-86
2022/04/19 12:09:58;;;;;;;2.83;1.90;;;;;;;15.09;30.41;99965.91;1414122;86;21470;-85
2022/04/19 12:12:32;;;;;;;2.20;1.90;;;;;;;15.20;27.00;99964.09;1383219;89;21301;-86
2022/04/19 12:15:00;;;;;;;6.30;2.80;;;;;;;15.34;27.96;99966.39;1370422;91;21442;-86